createdAt,value
2018-09-05T00:03:39.910Z,54.70
2018-09-05T00:07:43.588Z,54.70
2018-09-05T00:11:47.263Z,54.70
2018-09-05T00:15:50.924Z,54.80
2018-09-05T00:19:54.571Z,54.80
2018-09-05T00:23:58.306Z,54.80
2018-09-05T00:28:01.988Z,54.80
2018-09-05T00:32:05.791Z,54.90
2018-09-05T00:36:09.452Z,54.80
2018-09-05T00:40:13.108Z,55.00
2018-09-05T00:44:16.752Z,54.90
2018-09-05T00:48:20.365Z,55.00
2018-09-05T00:52:24.035Z,55.00
2018-09-05T00:56:27.687Z,54.40
2018-09-05T01:00:31.422Z,54.40
2018-09-05T01:04:35.101Z,55.20
2018-09-05T01:08:38.784Z,55.20
2018-09-05T01:12:42.541Z,55.10
2018-09-05T01:16:46.212Z,55.20
2018-09-05T01:20:49.940Z,55.20
2018-09-05T01:24:53.568Z,55.20
2018-09-05T01:28:57.239Z,55.10
2018-09-05T01:33:00.865Z,55.20
2018-09-05T01:37:04.732Z,55.30
2018-09-05T01:41:08.414Z,55.30
2018-09-05T01:45:12.108Z,55.30
2018-09-05T01:49:15.741Z,55.30
2018-09-05T01:53:19.333Z,55.60
2018-09-05T01:57:22.972Z,55.40
2018-09-05T02:01:26.644Z,55.40
2018-09-05T02:05:30.541Z,55.40
2018-09-05T02:09:34.202Z,55.40
2018-09-05T02:13:37.818Z,55.30
2018-09-05T02:17:41.466Z,55.40
2018-09-05T02:21:45.120Z,55.40
2018-09-05T02:25:48.777Z,55.40
2018-09-05T02:29:52.505Z,55.60
2018-09-05T02:33:56.132Z,55.40
2018-09-05T02:37:59.769Z,55.60
2018-09-05T02:42:03.423Z,55.60
2018-09-05T02:46:06.824Z,55.60
2018-09-05T02:50:10.502Z,55.60
2018-09-05T02:54:14.109Z,55.50
2018-09-05T02:58:17.849Z,55.50
2018-09-05T03:02:21.506Z,55.60
2018-09-05T03:06:25.181Z,55.50
2018-09-05T03:10:28.829Z,55.60
2018-09-05T03:14:32.454Z,55.60
2018-09-05T03:18:36.159Z,55.60
2018-09-05T03:22:39.924Z,55.60
2018-09-05T03:26:43.568Z,55.70
2018-09-05T03:30:47.259Z,55.20
2018-09-05T03:34:50.865Z,55.60
2018-09-05T03:38:54.504Z,55.60
2018-09-05T03:42:58.148Z,55.70
2018-09-05T03:47:01.838Z,55.80
2018-09-05T03:51:05.521Z,55.70
2018-09-05T03:55:09.158Z,55.70
2018-09-05T03:59:13.508Z,55.70
2018-09-05T04:03:17.160Z,55.80
2018-09-05T04:07:20.801Z,55.90
2018-09-05T04:11:24.906Z,55.90
2018-09-05T04:15:28.543Z,55.80
2018-09-05T04:19:32.168Z,55.80
2018-09-05T04:23:40.013Z,55.90
2018-09-05T04:27:43.777Z,55.90
2018-09-05T04:31:47.432Z,55.80
2018-09-05T04:35:51.069Z,56.00
2018-09-05T04:39:54.721Z,56.00
2018-09-05T04:43:58.401Z,56.00
2018-09-05T04:48:02.041Z,56.20
2018-09-05T04:52:05.939Z,56.00
2018-09-05T04:56:09.609Z,57.10
2018-09-05T05:00:13.241Z,56.50
2018-09-05T05:04:16.913Z,56.50
2018-09-05T05:08:20.649Z,56.50
2018-09-05T05:12:24.363Z,56.40
2018-09-05T05:16:28.059Z,56.40
2018-09-05T05:20:38.076Z,56.40
2018-09-05T05:24:41.777Z,56.40
2018-09-05T05:28:45.516Z,56.50
2018-09-05T05:32:49.242Z,57.10
2018-09-05T05:36:52.888Z,56.50
2018-09-05T05:40:56.514Z,56.60
2018-09-05T05:45:00.206Z,56.70
2018-09-05T05:49:03.964Z,57.70
2018-09-05T05:53:07.595Z,57.40
2018-09-05T05:57:11.256Z,57.00
2018-09-05T06:01:14.893Z,56.90
2018-09-05T06:05:18.592Z,57.10
2018-09-05T06:09:22.286Z,57.10
2018-09-05T06:13:25.939Z,57.70
2018-09-05T06:17:30.015Z,57.60
2018-09-05T06:22:07.658Z,58.40
2018-09-05T06:26:11.311Z,58.00
2018-09-05T06:30:15.173Z,58.40
2018-09-05T06:34:18.951Z,58.20
2018-09-05T06:38:22.584Z,58.20
2018-09-05T06:42:26.249Z,58.40
2018-09-05T06:46:29.859Z,58.20
2018-09-05T06:50:33.579Z,58.10
2018-09-05T06:54:37.244Z,58.20
2018-09-05T06:58:40.943Z,60.50
2018-09-05T07:02:44.720Z,58.50
2018-09-05T07:06:48.446Z,59.30
2018-09-05T07:10:52.130Z,58.90
2018-09-05T07:14:55.812Z,59.30
2018-09-05T07:18:59.668Z,58.70
2018-09-05T07:23:03.360Z,59.60
2018-09-05T07:27:07.048Z,58.80
2018-09-05T07:31:10.735Z,59.90
2018-09-05T07:35:14.448Z,60.90
2018-09-05T07:39:18.134Z,62.90
2018-09-05T07:43:21.781Z,61.70
2018-09-05T07:47:25.470Z,60.00
2018-09-05T07:51:29.146Z,59.00
2018-09-05T07:55:32.839Z,57.60
2018-09-05T07:59:36.637Z,56.20
2018-09-05T08:03:41.455Z,55.60
2018-09-05T08:07:45.188Z,54.40
2018-09-05T08:11:50.204Z,46.80
2018-09-05T08:15:55.155Z,51.30
2018-09-05T08:19:59.806Z,52.00
2018-09-05T08:24:03.527Z,51.80
2018-09-05T08:28:07.223Z,51.10
2018-09-05T08:32:10.875Z,49.80
2018-09-05T08:36:14.740Z,49.30
2018-09-05T08:40:18.299Z,50.70
2018-09-05T08:44:22.089Z,50.60
2018-09-05T08:48:25.800Z,51.90
2018-09-05T08:52:29.560Z,52.10
2018-09-05T08:56:33.267Z,53.60
2018-09-05T09:00:36.975Z,53.70
2018-09-05T09:04:40.724Z,54.20
2018-09-05T09:08:44.372Z,54.30
2018-09-05T09:12:48.101Z,54.80
2018-09-05T09:16:51.843Z,55.10
2018-09-05T09:20:55.514Z,55.40
2018-09-05T09:24:59.189Z,55.40
2018-09-05T09:29:02.851Z,55.70
2018-09-05T09:33:06.567Z,55.80
2018-09-05T09:37:10.270Z,56.20
2018-09-05T09:41:13.943Z,56.30
2018-09-05T09:45:17.643Z,57.00
2018-09-05T09:49:21.372Z,56.60
2018-09-05T09:53:25.053Z,56.80
2018-09-05T09:57:28.710Z,56.70
2018-09-05T10:01:37.595Z,56.70
2018-09-05T10:05:46.659Z,56.70
2018-09-05T10:09:55.115Z,56.80
2018-09-05T10:14:03.824Z,56.90
2018-09-05T10:18:12.841Z,56.20
2018-09-05T10:22:16.508Z,56.80
2018-09-05T10:26:20.155Z,56.70
2018-09-05T10:30:23.917Z,56.60
2018-09-05T10:34:27.553Z,56.00
2018-09-05T10:38:31.256Z,57.20
2018-09-05T10:42:34.915Z,56.70
2018-09-05T10:46:38.930Z,56.50
2018-09-05T10:50:42.663Z,56.50
2018-09-05T10:54:46.332Z,56.50
2018-09-05T10:58:50.038Z,56.00
2018-09-05T11:02:53.701Z,56.30
2018-09-05T11:06:57.992Z,54.70
2018-09-05T11:11:01.648Z,55.10
2018-09-05T11:15:05.328Z,56.00
2018-09-05T11:19:09.559Z,55.80
2018-09-05T11:23:13.646Z,55.70
2018-09-05T11:27:17.360Z,55.70
2018-09-05T11:31:21.013Z,55.50
2018-09-05T11:35:24.639Z,55.50
2018-09-05T11:39:28.291Z,54.90
2018-09-05T11:43:32.016Z,54.90
2018-09-05T11:47:35.723Z,55.60
2018-09-05T11:51:39.760Z,54.70
2018-09-05T11:55:43.419Z,54.40
2018-09-05T11:59:47.062Z,54.80
2018-09-05T12:03:50.739Z,54.10
2018-09-05T12:07:54.523Z,53.50
2018-09-05T12:11:58.200Z,54.40
2018-09-05T12:16:01.868Z,54.00
2018-09-05T12:20:05.553Z,51.30
2018-09-05T12:24:09.220Z,54.50
2018-09-05T12:28:12.927Z,54.50
2018-09-05T12:32:16.566Z,54.70
2018-09-05T12:36:20.268Z,51.90
2018-09-05T12:40:24.040Z,53.60
2018-09-05T12:44:27.713Z,53.00
2018-09-05T12:48:31.364Z,50.70
2018-09-05T12:52:35.024Z,48.80
2018-09-05T12:56:38.680Z,49.90
2018-09-05T13:00:42.420Z,52.20
2018-09-05T13:04:46.149Z,52.70
2018-09-05T13:08:49.836Z,51.90
2018-09-05T13:12:53.484Z,52.40
2018-09-05T13:16:57.244Z,50.60
2018-09-05T13:21:00.919Z,52.80
2018-09-05T13:25:04.597Z,44.70
2018-09-05T13:29:08.365Z,51.70
2018-09-05T13:33:12.132Z,50.70
2018-09-05T13:37:15.747Z,49.40
2018-09-05T13:41:19.523Z,50.90
2018-09-05T13:45:23.214Z,51.10
2018-09-05T13:49:26.878Z,50.20
2018-09-05T13:53:30.917Z,48.20
2018-09-05T13:57:34.589Z,48.40
2018-09-05T14:01:38.249Z,49.70
2018-09-05T14:05:41.937Z,49.80
2018-09-05T14:09:45.728Z,48.00
2018-09-05T14:13:49.375Z,48.70
2018-09-05T14:17:53.055Z,50.20
2018-09-05T14:21:56.732Z,48.00
2018-09-05T14:26:00.487Z,49.30
2018-09-05T14:30:04.328Z,50.00
2018-09-05T14:34:08.116Z,50.90
2018-09-05T14:38:12.110Z,51.10
2018-09-05T14:42:15.795Z,40.40
2018-09-05T14:46:19.611Z,44.50
2018-09-05T14:50:23.369Z,49.90
2018-09-05T14:54:27.072Z,50.00
2018-09-05T14:58:30.748Z,51.10
2018-09-05T15:02:34.376Z,48.90
2018-09-05T15:06:38.069Z,50.90
2018-09-05T15:10:41.788Z,50.40
2018-09-05T15:14:45.426Z,48.00
2018-09-05T15:18:49.132Z,50.00
2018-09-05T15:22:52.760Z,48.80
2018-09-05T15:26:56.447Z,46.70
2018-09-05T15:31:00.146Z,46.30
2018-09-05T15:35:03.934Z,47.90
2018-09-05T15:39:09.204Z,48.40
2018-09-05T15:43:12.840Z,45.70
2018-09-05T15:47:16.545Z,48.30
2018-09-05T15:51:20.187Z,48.50
2018-09-05T15:55:25.034Z,48.20
2018-09-05T15:59:28.756Z,48.40
2018-09-05T16:03:32.473Z,48.30
2018-09-05T16:07:36.213Z,42.80
2018-09-05T16:11:40.275Z,48.40
2018-09-05T16:15:44.043Z,46.30
2018-09-05T16:19:47.625Z,48.90
2018-09-05T16:23:51.313Z,48.00
2018-09-05T16:27:54.996Z,47.40
2018-09-05T16:31:58.648Z,48.80
2018-09-05T16:36:02.331Z,48.20
2018-09-05T16:40:06.176Z,48.10
2018-09-05T16:44:10.709Z,47.20
2018-09-05T16:48:14.408Z,46.00
2018-09-05T16:52:18.131Z,47.70
2018-09-05T16:56:21.865Z,48.00
2018-09-05T17:00:25.620Z,48.40
2018-09-05T17:04:29.301Z,47.70
2018-09-05T17:08:32.970Z,48.90
2018-09-05T17:12:36.618Z,48.00
2018-09-05T17:16:40.422Z,48.80
2018-09-05T17:20:44.172Z,49.00
2018-09-05T17:24:47.889Z,48.90
2018-09-05T17:28:51.644Z,48.90
2018-09-05T17:32:55.263Z,49.00
2018-09-05T17:36:58.969Z,49.00
2018-09-05T17:41:02.612Z,49.00
2018-09-05T17:45:06.640Z,49.00
2018-09-05T17:49:10.544Z,48.90
2018-09-05T17:53:14.201Z,49.00
2018-09-05T17:57:17.947Z,49.00
2018-09-05T18:01:23.220Z,48.90
2018-09-05T18:05:26.912Z,49.00
2018-09-05T18:09:30.620Z,48.90
2018-09-05T18:13:34.359Z,48.90
2018-09-05T18:17:38.147Z,48.90
2018-09-05T18:21:41.807Z,48.90
2018-09-05T18:25:45.445Z,48.90
2018-09-05T18:29:49.130Z,49.00
2018-09-05T18:33:52.882Z,49.00
2018-09-05T18:37:56.496Z,49.00
2018-09-05T18:42:00.161Z,49.10
2018-09-05T18:46:03.883Z,49.10
2018-09-05T18:50:07.564Z,49.10
2018-09-05T18:54:11.228Z,49.20
2018-09-05T18:58:14.862Z,49.20
2018-09-05T19:02:18.584Z,49.20
2018-09-05T19:06:22.225Z,49.20
2018-09-05T19:10:25.841Z,49.30
2018-09-05T19:14:29.481Z,49.30
2018-09-05T19:18:33.225Z,49.30
2018-09-05T19:22:36.863Z,49.40
2018-09-05T19:26:40.503Z,49.40
2018-09-05T19:30:44.135Z,49.40
2018-09-05T19:34:47.851Z,49.50
2018-09-05T19:38:51.520Z,49.50
2018-09-05T19:42:55.194Z,49.60
2018-09-05T19:46:58.846Z,49.60
2018-09-05T19:51:02.486Z,49.70
2018-09-05T19:55:06.185Z,49.70
2018-09-05T19:59:09.828Z,49.70
2018-09-05T20:03:13.496Z,49.20
2018-09-05T20:07:17.152Z,49.90
2018-09-05T20:11:20.880Z,50.00
2018-09-05T20:15:24.624Z,50.00
2018-09-05T20:19:28.236Z,50.10
2018-09-05T20:23:31.899Z,50.10
2018-09-05T20:27:35.596Z,50.10
2018-09-05T20:31:39.255Z,50.10
2018-09-05T20:35:42.903Z,50.20
2018-09-05T20:39:46.639Z,50.30
2018-09-05T20:43:50.269Z,50.30
2018-09-05T20:47:53.927Z,50.20
2018-09-05T20:51:57.608Z,50.30
2018-09-05T20:56:01.261Z,50.40
2018-09-05T21:00:05.468Z,50.30
2018-09-05T21:04:09.119Z,50.40
2018-09-05T21:08:12.828Z,50.30
2018-09-05T21:12:16.460Z,50.40
2018-09-05T21:16:20.125Z,50.40
2018-09-05T21:20:23.958Z,50.50
2018-09-05T21:24:27.567Z,50.50
2018-09-05T21:28:31.242Z,50.60
2018-09-05T21:32:34.876Z,50.60
2018-09-05T21:36:38.540Z,50.60
2018-09-05T21:40:42.189Z,50.60
2018-09-05T21:44:45.787Z,50.70
2018-09-05T21:48:49.431Z,50.70
2018-09-05T21:52:53.195Z,50.70
2018-09-05T21:56:56.783Z,50.70
2018-09-05T22:01:00.403Z,50.80
2018-09-05T22:05:04.118Z,50.80
2018-09-05T22:09:09.174Z,50.80
2018-09-05T22:13:12.854Z,50.80
2018-09-05T22:17:16.526Z,50.90
2018-09-05T22:21:20.290Z,50.90
2018-09-05T22:25:23.899Z,51.00
2018-09-05T22:29:27.618Z,51.00
2018-09-05T22:33:31.304Z,51.10
2018-09-05T22:37:34.942Z,51.10
2018-09-05T22:41:38.601Z,51.10
2018-09-05T22:45:53.635Z,51.00
2018-09-05T22:50:31.060Z,51.10
2018-09-05T22:56:05.670Z,51.00
2018-09-05T23:00:27.497Z,51.10
2018-09-05T23:05:15.224Z,51.20
2018-09-05T23:09:28.964Z,51.90
2018-09-05T23:13:43.955Z,51.30
2018-09-05T23:20:05.532Z,51.40
2018-09-05T23:24:10.869Z,51.40
2018-09-05T23:28:14.549Z,51.40
2018-09-05T23:32:18.284Z,51.40
2018-09-05T23:36:22.271Z,51.50
2018-09-05T23:40:25.940Z,51.50
2018-09-05T23:44:29.601Z,51.30
2018-09-05T23:48:33.256Z,51.60
2018-09-05T23:52:36.920Z,51.70
2018-09-05T23:56:40.608Z,51.60
